Time;durP1;ratioP1;P1;durP2;ratioP2;P2;SDS_P1;SDS_P2;PMS_P1;PMS_P2;Temp;Humidity;BMP_temperature;BMP_pressure;BME280_temperature;BME280_humidity;BME280_pressure;Samples;Min_cycle;Max_cycle;Signal;HPM_P1;HPM_P2
2023/08/31 00:00:00;;;;;;;1.80;1.80;;;;;;;;;;4918424;29;20264;-77
2023/08/31 00:02:27;;;;;;;1.50;1.50;;;;;;;;;;4918349;29;20265;-77
2023/08/31 00:04:54;;;;;;;1.55;1.55;;;;;;;;;;4918082;29;20231;-77
2023/08/31 00:07:22;;;;;;;1.45;1.45;;;;;;;;;;4917760;29;20209;-78
2023/08/31 00:09:49;;;;;;;1.23;1.23;;;;;;;;;;4917860;29;20216;-77
2023/08/31 00:12:16;;;;;;;1.10;1.10;;;;;;;;;;4919003;29;20205;-77
2023/08/31 00:14:44;;;;;;;1.10;1.10;;;;;;;;;;4917811;29;20228;-76
2023/08/31 00:17:13;;;;;;;1.00;1.00;;;;;;;;;;4917578;29;20216;-76
2023/08/31 00:19:40;;;;;;;1.00;1.00;;;;;;;;;;4917958;29;20216;-77
2023/08/31 00:22:07;;;;;;;1.20;1.20;;;;;;;;;;4919502;29;20216;-77
2023/08/31 00:24:36;;;;;;;1.10;1.10;;;;;;;;;;4920870;29;20233;-77
2023/08/31 00:27:06;;;;;;;1.33;1.33;;;;;;;;;;4921102;29;20216;-78
2023/08/31 00:29:33;;;;;;;0.80;0.80;;;;;;;;;;4921288;29;20216;-77
2023/08/31 00:32:00;;;;;;;1.15;1.15;;;;;;;;;;4921434;29;20209;-77
2023/08/31 00:34:29;;;;;;;0.85;0.85;;;;;;;;;;4920897;29;20226;-77
2023/08/31 00:36:56;;;;;;;0.77;0.77;;;;;;;;;;4921008;29;20205;-77
2023/08/31 00:39:23;;;;;;;0.70;0.70;;;;;;;;;;4920595;29;20688;-77
2023/08/31 00:41:50;;;;;;;0.90;0.90;;;;;;;;;;4920322;29;20210;-77
2023/08/31 00:44:17;;;;;;;0.70;0.70;;;;;;;;;;4920292;29;20236;-77
2023/08/31 00:46:44;;;;;;;0.70;0.70;;;;;;;;;;4920478;29;20210;-77
2023/08/31 00:49:12;;;;;;;0.70;0.70;;;;;;;;;;4920395;29;20224;-77
2023/08/31 00:51:41;;;;;;;0.60;0.60;;;;;;;;;;4922086;29;20202;-77
2023/08/31 00:54:08;;;;;;;0.70;0.70;;;;;;;;;;4921252;29;20229;-77
2023/08/31 00:56:35;;;;;;;0.70;0.70;;;;;;;;;;4925500;29;20209;-77
2023/08/31 00:59:02;;;;;;;0.50;0.50;;;;;;;;;;4921623;29;20217;-77
2023/08/31 01:01:35;;;;;;;0.90;0.90;;;;;;;;;;4920402;29;20217;-77
2023/08/31 01:04:09;;;;;;;0.60;0.60;;;;;;;;;;4924309;29;20229;-77
2023/08/31 01:06:40;;;;;;;0.57;0.57;;;;;;;;;;4923117;29;20186;-77
2023/08/31 01:09:11;;;;;;;0.60;0.60;;;;;;;;;;4922824;29;20221;-77
2023/08/31 01:11:47;;;;;;;0.75;0.75;;;;;;;;;;4920830;29;20197;-77
2023/08/31 01:14:19;;;;;;;0.65;0.65;;;;;;;;;;4920013;29;20562;-77
2023/08/31 01:16:49;;;;;;;0.70;0.70;;;;;;;;;;4920566;29;20194;-77
2023/08/31 01:19:25;;;;;;;0.70;0.70;;;;;;;;;;4920767;29;20336;-77
2023/08/31 01:21:53;;;;;;;0.60;0.60;;;;;;;;;;4920118;29;20205;-78
2023/08/31 01:24:23;;;;;;;0.65;0.65;;;;;;;;;;4920012;29;20264;-76
2023/08/31 01:26:50;;;;;;;0.70;0.70;;;;;;;;;;4919973;29;20205;-78
2023/08/31 01:29:17;;;;;;;0.65;0.65;;;;;;;;;;4920276;29;20209;-77
2023/08/31 01:31:45;;;;;;;0.70;0.70;;;;;;;;;;4919837;29;20209;-77
2023/08/31 01:34:12;;;;;;;0.80;0.80;;;;;;;;;;4918620;29;20324;-77
2023/08/31 01:36:43;;;;;;;0.65;0.65;;;;;;;;;;4920513;29;20300;-78
2023/08/31 01:39:12;;;;;;;0.73;0.73;;;;;;;;;;4920479;29;20190;-76
2023/08/31 01:41:42;;;;;;;0.65;0.65;;;;;;;;;;4919532;29;20252;-76
2023/08/31 01:44:12;;;;;;;0.60;0.60;;;;;;;;;;4919679;29;20229;-78
2023/08/31 01:46:39;;;;;;;0.63;0.63;;;;;;;;;;4920471;29;20213;-76
2023/08/31 01:49:06;;;;;;;0.80;0.80;;;;;;;;;;4919436;29;20206;-79
2023/08/31 01:51:33;;;;;;;1.00;1.00;;;;;;;;;;4919791;29;20292;-78
2023/08/31 01:54:00;;;;;;;0.63;0.63;;;;;;;;;;4920322;29;20232;-77
2023/08/31 01:56:28;;;;;;;0.60;0.60;;;;;;;;;;4919551;29;20198;-77
2023/08/31 01:58:56;;;;;;;0.70;0.70;;;;;;;;;;4919383;29;20213;-77
2023/08/31 02:01:23;;;;;;;0.70;0.70;;;;;;;;;;4919338;29;20216;-76
2023/08/31 02:03:50;;;;;;;0.70;0.70;;;;;;;;;;4919018;29;20225;-77
2023/08/31 02:06:17;;;;;;;0.73;0.73;;;;;;;;;;4918904;29;20228;-77
2023/08/31 02:08:47;;;;;;;0.70;0.70;;;;;;;;;;4921815;29;20578;-78
2023/08/31 02:11:14;;;;;;;0.60;0.60;;;;;;;;;;4923588;29;20297;-78
2023/08/31 02:13:41;;;;;;;0.60;0.60;;;;;;;;;;4921284;29;20637;-77
2023/08/31 02:16:09;;;;;;;0.60;0.52;;;;;;;;;;4921776;29;20205;-78
2023/08/31 02:18:36;;;;;;;0.68;0.68;;;;;;;;;;4919861;29;20213;-77
2023/08/31 02:21:07;;;;;;;0.77;0.77;;;;;;;;;;4919091;29;20213;-77
2023/08/31 02:23:34;;;;;;;0.70;0.70;;;;;;;;;;4918966;29;20237;-77
2023/08/31 02:26:01;;;;;;;1.08;0.60;;;;;;;;;;4919900;29;20225;-77
2023/08/31 02:28:28;;;;;;;0.70;0.70;;;;;;;;;;4921110;29;20213;-77
2023/08/31 02:30:59;;;;;;;0.68;0.68;;;;;;;;;;4923077;29;20217;-77
2023/08/31 02:33:27;;;;;;;0.70;0.70;;;;;;;;;;4921970;29;20225;-78
2023/08/31 02:35:55;;;;;;;0.90;0.90;;;;;;;;;;4921041;29;20209;-77
2023/08/31 02:38:23;;;;;;;0.80;0.80;;;;;;;;;;4918605;29;20214;-77
2023/08/31 02:40:50;;;;;;;0.77;0.77;;;;;;;;;;4920476;29;20699;-78
2023/08/31 02:43:17;;;;;;;0.60;0.60;;;;;;;;;;4921884;29;20221;-78
2023/08/31 02:45:44;;;;;;;0.82;0.82;;;;;;;;;;4922844;29;20221;-78
2023/08/31 02:48:11;;;;;;;0.70;0.70;;;;;;;;;;4919391;29;20212;-77
2023/08/31 02:50:40;;;;;;;0.60;0.60;;;;;;;;;;4918462;29;20217;-77
2023/08/31 02:53:07;;;;;;;0.63;0.63;;;;;;;;;;4920076;29;20678;-79
2023/08/31 02:55:34;;;;;;;0.75;0.75;;;;;;;;;;4922217;29;20568;-78
2023/08/31 02:58:02;;;;;;;0.60;0.60;;;;;;;;;;4918265;29;20212;-77
2023/08/31 03:00:29;;;;;;;0.60;0.60;;;;;;;;;;4918382;29;20208;-77
2023/08/31 03:02:56;;;;;;;0.60;0.60;;;;;;;;;;4918526;29;20212;-76
2023/08/31 03:05:23;;;;;;;0.60;0.60;;;;;;;;;;4917847;29;20248;-77
2023/08/31 03:07:52;;;;;;;0.90;0.90;;;;;;;;;;4917782;29;20239;-77
2023/08/31 03:10:19;;;;;;;0.77;0.77;;;;;;;;;;4918400;29;20269;-77
2023/08/31 03:12:46;;;;;;;0.60;0.60;;;;;;;;;;4918158;29;20220;-77
2023/08/31 03:15:13;;;;;;;0.60;0.60;;;;;;;;;;4917907;29;20229;-77
2023/08/31 03:17:40;;;;;;;0.50;0.50;;;;;;;;;;4918208;29;20216;-77
2023/08/31 03:20:08;;;;;;;0.70;0.70;;;;;;;;;;4919330;29;20208;-75
2023/08/31 03:22:35;;;;;;;0.60;0.60;;;;;;;;;;4917712;29;20205;-75
2023/08/31 03:25:03;;;;;;;0.70;0.70;;;;;;;;;;4917527;29;20229;-75
2023/08/31 03:27:30;;;;;;;0.50;0.50;;;;;;;;;;4917716;29;20205;-76
2023/08/31 03:29:57;;;;;;;0.70;0.70;;;;;;;;;;4917688;29;20236;-76
2023/08/31 03:32:24;;;;;;;0.80;0.80;;;;;;;;;;4917541;29;20209;-76
2023/08/31 03:34:51;;;;;;;0.50;0.50;;;;;;;;;;4917451;29;20232;-76
2023/08/31 03:37:19;;;;;;;0.63;0.63;;;;;;;;;;4917436;29;20221;-77
2023/08/31 03:39:48;;;;;;;0.77;0.77;;;;;;;;;;4917503;29;20209;-76
2023/08/31 03:42:17;;;;;;;0.70;0.70;;;;;;;;;;4917395;29;20208;-76
2023/08/31 03:44:44;;;;;;;0.70;0.70;;;;;;;;;;4917519;29;20240;-76
2023/08/31 03:47:11;;;;;;;0.73;0.73;;;;;;;;;;4917685;29;20225;-75
2023/08/31 03:49:38;;;;;;;0.75;0.75;;;;;;;;;;4917325;29;20573;-76
2023/08/31 03:52:05;;;;;;;0.70;0.70;;;;;;;;;;4917248;29;20212;-75
2023/08/31 03:54:32;;;;;;;0.80;0.80;;;;;;;;;;4917236;29;20245;-75
2023/08/31 03:56:59;;;;;;;0.60;0.60;;;;;;;;;;4916829;29;20224;-75
2023/08/31 03:59:28;;;;;;;0.70;0.70;;;;;;;;;;4917254;29;20205;-75
2023/08/31 04:01:55;;;;;;;0.75;0.75;;;;;;;;;;4917259;29;20283;-75
2023/08/31 04:04:22;;;;;;;0.75;0.75;;;;;;;;;;4916888;29;20229;-75
2023/08/31 04:06:49;;;;;;;0.70;0.70;;;;;;;;;;4917101;29;20221;-75
2023/08/31 04:09:16;;;;;;;0.60;0.60;;;;;;;;;;4917083;29;20228;-75
2023/08/31 04:11:43;;;;;;;0.80;0.80;;;;;;;;;;4917428;29;20296;-75
2023/08/31 04:14:10;;;;;;;0.60;0.60;;;;;;;;;;4917141;29;20229;-75
2023/08/31 04:16:38;;;;;;;0.80;0.80;;;;;;;;;;4916835;29;20677;-77
2023/08/31 04:19:05;;;;;;;0.70;0.70;;;;;;;;;;4916791;29;20205;-76
2023/08/31 04:21:32;;;;;;;0.73;0.73;;;;;;;;;;4917083;29;20208;-76
2023/08/31 04:24:00;;;;;;;0.80;0.80;;;;;;;;;;4917212;29;20225;-76
2023/08/31 04:26:29;;;;;;;0.60;0.60;;;;;;;;;;4916627;29;20227;-76
2023/08/31 04:28:56;;;;;;;0.95;0.95;;;;;;;;;;4917322;29;20213;-77
2023/08/31 04:31:23;;;;;;;0.80;0.80;;;;;;;;;;4916943;29;20205;-77
2023/08/31 04:33:53;;;;;;;0.70;0.70;;;;;;;;;;4917147;29;20225;-77
2023/08/31 04:36:20;;;;;;;0.70;0.70;;;;;;;;;;4916984;29;20285;-77
2023/08/31 04:38:47;;;;;;;0.60;0.60;;;;;;;;;;4916838;29;20561;-76
2023/08/31 04:41:14;;;;;;;0.60;0.60;;;;;;;;;;4916929;29;20347;-76
2023/08/31 04:43:42;;;;;;;0.82;0.82;;;;;;;;;;4916788;29;20225;-76
2023/08/31 04:46:09;;;;;;;0.80;0.80;;;;;;;;;;4916660;29;20228;-76
2023/08/31 04:48:36;;;;;;;0.98;0.98;;;;;;;;;;4917006;29;20209;-76
2023/08/31 04:51:05;;;;;;;0.70;0.70;;;;;;;;;;4916839;29;20335;-76
2023/08/31 04:53:32;;;;;;;0.80;0.80;;;;;;;;;;4916680;29;20285;-76
2023/08/31 04:55:59;;;;;;;0.70;0.70;;;;;;;;;;4917189;29;20209;-77
2023/08/31 04:58:26;;;;;;;0.75;0.75;;;;;;;;;;4916440;29;20212;-76
2023/08/31 05:00:54;;;;;;;0.80;0.80;;;;;;;;;;4916465;29;20577;-74
2023/08/31 05:03:21;;;;;;;0.75;0.75;;;;;;;;;;4916786;29;20221;-74
2023/08/31 05:05:48;;;;;;;1.00;1.00;;;;;;;;;;4916630;29;20221;-74
2023/08/31 05:08:16;;;;;;;0.80;0.80;;;;;;;;;;4917433;29;20210;-74
2023/08/31 05:10:43;;;;;;;0.90;0.90;;;;;;;;;;4920010;29;20205;-72
2023/08/31 05:13:10;;;;;;;0.75;0.75;;;;;;;;;;4919600;29;20677;-70
2023/08/31 05:15:38;;;;;;;0.90;0.90;;;;;;;;;;4919946;29;20206;-71
2023/08/31 05:18:08;;;;;;;1.00;1.00;;;;;;;;;;4919825;29;20216;-71
2023/08/31 05:20:35;;;;;;;0.73;0.73;;;;;;;;;;4919558;29;20639;-72
2023/08/31 05:23:03;;;;;;;1.05;1.05;;;;;;;;;;4919724;29;20209;-73
2023/08/31 05:25:31;;;;;;;0.70;0.70;;;;;;;;;;4920457;29;20240;-73
2023/08/31 20:19:01;;;;;;;1.25;1.25;;;;;;;;;;5300742;23;20235;-71
2023/08/31 20:21:28;;;;;;;1.00;1.00;;;;;;;;;;4956458;29;20279;-71
2023/08/31 20:23:55;;;;;;;1.00;1.00;;;;;;;;;;4956091;29;20207;-71
2023/08/31 20:26:22;;;;;;;1.20;1.20;;;;;;;;;;4954905;29;20725;-71
2023/08/31 20:28:50;;;;;;;1.02;1.02;;;;;;;;;;4955158;29;20228;-71
2023/08/31 20:31:17;;;;;;;1.10;1.10;;;;;;;;;;4978080;23;20691;-68
2023/08/31 20:33:44;;;;;;;0.98;0.95;;;;;;;;;;4955222;29;20207;-71
2023/08/31 20:36:12;;;;;;;0.77;0.77;;;;;;;;;;4955354;29;20212;-71
2023/08/31 20:38:39;;;;;;;1.00;1.00;;;;;;;;;;4956810;28;20210;-70
2023/08/31 20:41:08;;;;;;;1.10;1.10;;;;;;;;;;4958533;29;20590;-70
2023/08/31 20:43:35;;;;;;;0.93;0.93;;;;;;;;;;4958854;28;20261;-71
2023/08/31 20:46:06;;;;;;;0.98;0.98;;;;;;;;;;4958755;29;20208;-71
2023/08/31 20:48:33;;;;;;;0.80;0.80;;;;;;;;;;4958399;29;20706;-71
2023/08/31 20:51:03;;;;;;;1.23;1.23;;;;;;;;;;4958245;29;20741;-71
2023/08/31 20:53:32;;;;;;;0.90;0.90;;;;;;;;;;4958322;29;20207;-71
2023/08/31 20:56:08;;;;;;;1.00;1.00;;;;;;;;;;4958601;29;20216;-71
2023/08/31 20:58:36;;;;;;;1.02;0.90;;;;;;;;;;4958564;29;20188;-71
2023/08/31 21:01:07;;;;;;;0.80;0.80;;;;;;;;;;4958430;29;20220;-71
2023/08/31 21:03:34;;;;;;;0.77;0.77;;;;;;;;;;4958492;29;20288;-71
2023/08/31 21:06:01;;;;;;;1.23;1.17;;;;;;;;;;4958085;29;20571;-71
2023/08/31 21:08:28;;;;;;;0.90;0.90;;;;;;;;;;4958272;29;20560;-71
2023/08/31 21:10:56;;;;;;;0.80;0.80;;;;;;;;;;4958022;29;20231;-71
2023/08/31 21:13:24;;;;;;;0.88;0.88;;;;;;;;;;4958257;29;20200;-71
2023/08/31 21:15:51;;;;;;;0.70;0.70;;;;;;;;;;4958304;29;20208;-71
2023/08/31 21:18:18;;;;;;;0.90;0.90;;;;;;;;;;4957943;29;20571;-71
2023/08/31 21:20:45;;;;;;;0.95;0.95;;;;;;;;;;4958575;29;20223;-73
2023/08/31 21:23:13;;;;;;;1.05;1.05;;;;;;;;;;4959039;29;20296;-73
2023/08/31 21:25:40;;;;;;;0.98;0.98;;;;;;;;;;4960413;29;20263;-73
2023/08/31 21:28:09;;;;;;;1.05;1.05;;;;;;;;;;4959301;29;20227;-73
